Cedar Springs, Georgia
Current Conditions -  °F | °C
As of 3:55 PM on Sunday 21 Dec 2014 (Local Time) from KBIJ Reporting Station
Haze Haze  
Wind Chill: 55°   Ceiling: 700
Heat Index: 55°   Visibility: 2mi
Dew Point: 54°   Wind: 5mph
Humidity: 94%   Direction: 80°E
Pressure: 30.06"   Gusts: NA
Location:  31.18°N, 85.04°W
Report Text: KBIJ 212055Z AUTO 08004KT 2SM BR OVC007 13/12 A3006 RMK AO2
Loading
Personal Weather Stations






























Interactive Weather Map New forecast layout! Learn more

10-Day Weather Forecast

Advertisements
Track Severe Weather on mobile